Time;durP1;ratioP1;P1;durP2;ratioP2;P2;SDS_P1;SDS_P2;PMS_P1;PMS_P2;Temp;Humidity;BMP_temperature;BMP_pressure;BME280_temperature;BME280_humidity;BME280_pressure;Samples;Min_cycle;Max_cycle;Signal;HPM_P1;HPM_P2
2024/01/08 00:01:54;;;;;;;8.67;5.87;;;-1.70;99.90;;;;;;5065122;28;20056;-81
2024/01/08 00:04:19;;;;;;;8.13;5.90;;;-1.70;99.90;;;;;;5065907;28;20586;-77
2024/01/08 00:06:45;;;;;;;8.80;6.07;;;-1.70;99.90;;;;;;5049018;28;20071;-80
2024/01/08 00:09:11;;;;;;;10.40;6.47;;;-1.70;99.90;;;;;;5058136;28;20044;-80
2024/01/08 00:11:37;;;;;;;9.80;5.80;;;-1.70;99.90;;;;;;5070181;28;20082;-80
2024/01/08 00:14:02;;;;;;;9.27;6.27;;;-1.70;99.90;;;;;;5066181;28;20071;-79
2024/01/08 00:16:28;;;;;;;10.57;6.33;;;-1.80;99.90;;;;;;5059776;28;20114;-80
2024/01/08 00:18:54;;;;;;;8.40;5.83;;;-1.80;99.90;;;;;;5051232;28;20041;-80
2024/01/08 00:21:20;;;;;;;8.70;5.93;;;-1.80;99.90;;;;;;5052288;28;20044;-81
2024/01/08 00:23:45;;;;;;;8.17;6.57;;;-1.90;99.90;;;;;;5056486;28;20683;-81
2024/01/08 00:26:11;;;;;;;8.53;6.07;;;-1.90;99.90;;;;;;5068429;28;20115;-81
2024/01/08 00:28:37;;;;;;;8.87;6.27;;;-1.90;99.90;;;;;;5066030;28;20048;-80
2024/01/08 00:31:03;;;;;;;9.83;6.80;;;-1.90;99.90;;;;;;5072210;28;20048;-80
2024/01/08 00:33:28;;;;;;;9.43;6.47;;;-1.90;99.90;;;;;;5062962;28;20052;-80
2024/01/08 00:35:54;;;;;;;10.00;6.10;;;-1.90;99.90;;;;;;5065734;28;20086;-80
2024/01/08 00:38:20;;;;;;;9.73;6.63;;;-1.90;99.90;;;;;;5066156;28;20045;-81
2024/01/08 00:40:45;;;;;;;10.67;6.93;;;-1.90;99.90;;;;;;5058990;28;20048;-79
2024/01/08 00:43:11;;;;;;;10.87;6.80;;;-1.90;99.90;;;;;;5064426;28;20594;-80
2024/01/08 00:45:37;;;;;;;11.17;6.53;;;-1.90;99.90;;;;;;5067155;28;20052;-79
2024/01/08 00:48:03;;;;;;;9.10;7.00;;;-1.90;99.90;;;;;;5060478;28;20037;-80
2024/01/08 00:50:29;;;;;;;10.73;6.87;;;-1.90;99.90;;;;;;5057067;28;20048;-80
2024/01/08 00:52:55;;;;;;;14.80;6.87;;;-2.00;99.90;;;;;;5060793;28;20285;-79
2024/01/08 00:55:20;;;;;;;9.63;6.93;;;-2.00;99.90;;;;;;5056177;28;20044;-79
2024/01/08 00:57:46;;;;;;;11.03;7.17;;;-1.90;99.90;;;;;;5067742;28;20120;-79
2024/01/08 01:00:12;;;;;;;11.63;7.40;;;-1.90;99.90;;;;;;5060689;28;20052;-79
2024/01/08 01:02:40;;;;;;;9.63;6.97;;;-1.90;99.90;;;;;;5064990;28;20416;-81
2024/01/08 01:05:06;;;;;;;10.00;7.37;;;-1.90;99.90;;;;;;5064316;28;20071;-80
2024/01/08 01:07:31;;;;;;;10.93;7.47;;;-1.80;99.90;;;;;;5066269;28;20363;-80
2024/01/08 01:09:57;;;;;;;9.20;7.10;;;-1.80;99.90;;;;;;5057459;28;20319;-79
2024/01/08 01:12:23;;;;;;;10.73;7.53;;;-1.80;99.90;;;;;;5061256;28;20488;-80
2024/01/08 01:14:48;;;;;;;8.77;6.70;;;-1.80;99.90;;;;;;5064773;28;20048;-80
2024/01/08 01:17:14;;;;;;;12.13;7.00;;;-1.70;99.90;;;;;;5063694;28;20048;-80
2024/01/08 01:19:40;;;;;;;9.10;7.43;;;-1.60;99.90;;;;;;5058280;28;20139;-80
2024/01/08 01:22:05;;;;;;;9.13;6.80;;;-1.70;99.90;;;;;;5066192;28;20040;-80
2024/01/08 01:24:31;;;;;;;10.27;7.20;;;-1.70;99.90;;;;;;5070863;28;20073;-79
2024/01/08 01:26:57;;;;;;;9.03;7.30;;;-1.70;99.90;;;;;;5056781;28;20048;-79
2024/01/08 01:29:22;;;;;;;9.90;7.00;;;-1.70;99.90;;;;;;5064348;28;20052;-80
2024/01/08 01:31:48;;;;;;;12.30;7.53;;;-1.70;99.90;;;;;;5056743;28;20053;-79
2024/01/08 01:34:15;;;;;;;10.60;7.33;;;-1.60;99.90;;;;;;5061265;28;20044;-78
2024/01/08 01:36:41;;;;;;;12.47;8.00;;;-1.60;99.90;;;;;;5063133;28;20178;-79
2024/01/08 01:39:07;;;;;;;10.93;7.50;;;-1.60;99.90;;;;;;5056539;28;20373;-79
2024/01/08 01:41:33;;;;;;;11.73;7.43;;;-1.50;99.90;;;;;;5058802;28;20112;-79
2024/01/08 01:43:59;;;;;;;12.20;7.87;;;-1.60;99.90;;;;;;5058468;28;20332;-79
2024/01/08 01:46:31;;;;;;;8.77;6.90;;;-1.50;99.90;;;;;;5061959;28;20041;-79
2024/01/08 01:48:57;;;;;;;11.50;7.13;;;-1.50;99.90;;;;;;5059714;28;20060;-79
2024/01/08 01:51:23;;;;;;;10.97;8.07;;;-1.50;99.90;;;;;;5060107;28;20287;-80
2024/01/08 01:53:49;;;;;;;11.77;8.47;;;-1.50;99.90;;;;;;5069073;28;20105;-80
2024/01/08 01:56:15;;;;;;;11.43;8.10;;;-1.40;99.90;;;;;;5061112;28;20641;-80
2024/01/08 01:58:41;;;;;;;12.67;8.33;;;-1.40;99.90;;;;;;5049507;28;20375;-80
2024/01/08 02:01:08;;;;;;;11.63;8.67;;;-1.30;99.90;;;;;;5065973;28;20052;-80
2024/01/08 02:03:35;;;;;;;10.77;8.23;;;-1.40;99.90;;;;;;5063833;28;20282;-80
2024/01/08 02:06:05;;;;;;;11.87;8.60;;;-1.40;99.90;;;;;;5059283;28;20394;-80
2024/01/08 02:08:31;;;;;;;12.97;8.67;;;-1.40;99.90;;;;;;5066485;28;20303;-79
2024/01/08 02:10:58;;;;;;;13.53;8.37;;;-1.30;99.90;;;;;;5068683;28;20287;-80
2024/01/08 02:13:24;;;;;;;12.33;8.73;;;-1.30;99.90;;;;;;5059074;28;20055;-80
2024/01/08 02:15:49;;;;;;;12.63;9.17;;;-1.30;99.90;;;;;;5068238;28;20332;-81
2024/01/08 02:18:15;;;;;;;12.73;9.30;;;-1.30;99.90;;;;;;5075735;28;20398;-80
2024/01/08 02:20:41;;;;;;;12.57;8.77;;;-1.30;99.90;;;;;;5066100;28;20048;-80
2024/01/08 02:23:07;;;;;;;13.80;9.20;;;-1.30;99.90;;;;;;5063870;28;20032;-79
2024/01/08 02:25:32;;;;;;;11.47;8.50;;;-1.30;99.90;;;;;;5063260;28;20052;-80
2024/01/08 02:27:58;;;;;;;13.47;9.43;;;-1.20;99.90;;;;;;5073883;28;20045;-79
2024/01/08 02:30:24;;;;;;;13.07;8.80;;;-1.20;99.90;;;;;;5056828;28;20348;-81
2024/01/08 02:32:50;;;;;;;11.47;8.57;;;-1.20;99.90;;;;;;5067175;28;20040;-81
2024/01/08 02:35:15;;;;;;;11.33;8.23;;;-1.20;99.90;;;;;;5049913;28;20509;-80
2024/01/08 02:37:41;;;;;;;12.80;8.40;;;-1.20;99.90;;;;;;5063037;28;20045;-80
2024/01/08 02:40:07;;;;;;;12.27;8.93;;;-1.20;99.90;;;;;;5067361;28;20046;-79
2024/01/08 02:42:33;;;;;;;14.30;9.20;;;-1.10;99.90;;;;;;5065524;28;20658;-80
2024/01/08 02:45:00;;;;;;;14.00;9.07;;;-1.10;99.90;;;;;;5069861;28;20326;-78
2024/01/08 02:47:26;;;;;;;14.23;9.13;;;-1.00;99.90;;;;;;5062122;28;20110;-80
2024/01/08 02:49:51;;;;;;;13.87;8.70;;;-1.00;99.90;;;;;;5065864;28;20283;-79
2024/01/08 02:52:17;;;;;;;14.70;9.10;;;-0.90;99.90;;;;;;5070483;28;20087;-79
2024/01/08 02:54:43;;;;;;;13.80;9.30;;;-0.90;99.90;;;;;;5068975;28;20059;-79
2024/01/08 02:57:08;;;;;;;12.97;9.00;;;-0.90;99.90;;;;;;5053285;28;20041;-79
2024/01/08 02:59:34;;;;;;;15.03;9.57;;;-0.90;99.90;;;;;;5066678;28;20056;-79
2024/01/08 03:01:59;;;;;;;14.27;8.90;;;-0.90;99.90;;;;;;5051352;28;20061;-79
2024/01/08 03:04:25;;;;;;;13.70;8.83;;;-0.80;99.90;;;;;;5065924;28;20072;-78
2024/01/08 03:06:51;;;;;;;13.33;9.17;;;-0.80;99.90;;;;;;5067347;28;20123;-79
2024/01/08 03:09:16;;;;;;;13.67;9.00;;;-0.80;99.90;;;;;;5067315;28;20036;-79
2024/01/08 03:11:42;;;;;;;13.67;9.40;;;-0.80;99.90;;;;;;5050365;28;20172;-79
2024/01/08 03:14:08;;;;;;;13.10;8.67;;;-0.80;99.90;;;;;;5066445;28;20099;-81
2024/01/08 03:16:33;;;;;;;15.57;9.67;;;-0.80;99.90;;;;;;5069441;28;20049;-79
2024/01/08 03:18:59;;;;;;;13.70;9.10;;;-0.80;99.90;;;;;;5039081;28;20132;-79
2024/01/08 03:21:25;;;;;;;14.03;9.33;;;-0.70;99.90;;;;;;5052093;28;20049;-80
2024/01/08 03:23:50;;;;;;;14.07;9.57;;;-0.80;99.90;;;;;;5069959;28;20041;-79
2024/01/08 03:26:16;;;;;;;11.53;8.40;;;-0.70;99.90;;;;;;5057102;28;20052;-79
2024/01/08 03:28:42;;;;;;;14.13;8.63;;;-0.70;99.90;;;;;;5073659;28;20439;-80
2024/01/08 03:31:08;;;;;;;12.53;8.43;;;-0.60;99.90;;;;;;5065945;28;20562;-79
2024/01/08 03:33:35;;;;;;;10.07;7.50;;;-0.60;99.90;;;;;;5059352;28;20053;-78
2024/01/08 03:36:01;;;;;;;9.33;7.27;;;-0.70;99.90;;;;;;5052864;28;20300;-79
2024/01/08 03:38:26;;;;;;;11.07;7.93;;;-0.60;99.90;;;;;;5061369;28;20338;-80
2024/01/08 03:40:52;;;;;;;11.63;8.10;;;-0.70;99.90;;;;;;5064832;28;20052;-80
2024/01/08 03:43:18;;;;;;;13.43;7.80;;;-0.70;99.90;;;;;;5061054;28;20044;-79
2024/01/08 03:45:43;;;;;;;10.73;7.80;;;-0.60;99.90;;;;;;5061406;28;21019;-80
2024/01/08 03:48:09;;;;;;;10.10;7.37;;;-0.60;99.90;;;;;;5071726;28;20638;-79
2024/01/08 03:50:35;;;;;;;10.50;7.30;;;-0.70;99.90;;;;;;5066043;28;20045;-79
2024/01/08 03:53:01;;;;;;;10.93;7.60;;;-0.60;99.90;;;;;;5065318;28;20061;-79
2024/01/08 03:55:26;;;;;;;11.73;7.70;;;-0.60;99.90;;;;;;5058486;28;20433;-80
2024/01/08 03:57:52;;;;;;;13.07;7.90;;;-0.60;99.90;;;;;;5061522;28;20420;-79
2024/01/08 04:00:18;;;;;;;11.60;7.40;;;-0.60;99.90;;;;;;5054177;28;20117;-79
2024/01/08 04:02:43;;;;;;;11.03;7.80;;;-0.60;99.90;;;;;;5054589;28;20136;-79
2024/01/08 04:05:11;;;;;;;9.73;6.90;;;-0.70;99.90;;;;;;5054692;28;20586;-79
2024/01/08 04:07:37;;;;;;;10.17;6.80;;;-0.70;99.90;;;;;;5066567;28;20081;-78
2024/01/08 04:10:04;;;;;;;10.20;6.50;;;-0.70;99.90;;;;;;5064063;28;20290;-79
2024/01/08 04:12:30;;;;;;;8.47;6.87;;;-0.70;99.90;;;;;;5063845;28;20670;-78
2024/01/08 04:14:56;;;;;;;10.20;7.23;;;-0.70;99.90;;;;;;5063057;28;20292;-78
2024/01/08 04:17:21;;;;;;;10.37;7.80;;;-0.80;99.90;;;;;;5062591;28;20055;-80
2024/01/08 04:19:47;;;;;;;10.77;7.03;;;-0.80;99.90;;;;;;5062811;28;20045;-79
2024/01/08 04:22:13;;;;;;;10.53;6.67;;;-0.80;99.90;;;;;;5081880;28;20094;-80
2024/01/08 04:24:38;;;;;;;10.40;7.50;;;-0.80;99.90;;;;;;5058993;28;20041;-81
2024/01/08 04:27:04;;;;;;;9.67;6.70;;;-0.90;99.90;;;;;;5068625;28;20050;-78
2024/01/08 04:29:30;;;;;;;8.60;6.87;;;-0.90;99.90;;;;;;5064554;28;20044;-80
2024/01/08 04:31:56;;;;;;;9.30;6.57;;;-0.80;99.90;;;;;;5061640;28;20139;-81
2024/01/08 04:34:22;;;;;;;7.83;6.20;;;-0.90;99.90;;;;;;5067328;28;20048;-79
2024/01/08 04:36:48;;;;;;;8.33;5.67;;;-0.90;99.90;;;;;;5054597;28;20286;-79
2024/01/08 04:39:14;;;;;;;9.10;6.10;;;-0.90;99.90;;;;;;5070590;28;20084;-79
2024/01/08 04:41:40;;;;;;;8.43;6.17;;;-0.80;99.90;;;;;;5052718;28;20050;-79
2024/01/08 04:44:05;;;;;;;8.63;6.33;;;-0.90;99.90;;;;;;5047121;28;20159;-80
2024/01/08 04:46:31;;;;;;;9.17;6.57;;;-0.90;99.90;;;;;;5064839;28;20051;-79
2024/01/08 04:48:57;;;;;;;8.77;6.07;;;-1.00;99.90;;;;;;5068482;28;20066;-79
2024/01/08 04:51:23;;;;;;;7.03;5.70;;;-1.00;99.90;;;;;;5059893;28;20044;-79
2024/01/08 04:53:50;;;;;;;6.83;5.47;;;-1.00;99.90;;;;;;5065032;28;20045;-80
2024/01/08 04:56:25;;;;;;;6.97;5.60;;;-1.00;99.90;;;;;;5064846;28;20674;-79
2024/01/08 04:58:54;;;;;;;9.43;5.23;;;-0.90;99.90;;;;;;5072799;28;20358;-79
2024/01/08 05:01:20;;;;;;;7.17;5.23;;;-1.00;99.90;;;;;;5059476;28;20317;-79
2024/01/08 05:03:46;;;;;;;6.23;5.23;;;-1.00;99.90;;;;;;5056945;28;20769;-79
2024/01/08 05:06:13;;;;;;;7.73;5.73;;;-1.00;99.90;;;;;;5071960;28;20040;-81
2024/01/08 05:08:39;;;;;;;8.93;5.73;;;-1.00;99.90;;;;;;5068185;28;20053;-80
2024/01/08 05:11:08;;;;;;;10.57;5.00;;;-1.00;99.90;;;;;;5057962;28;20370;-78
2024/01/08 05:13:34;;;;;;;7.40;5.80;;;-1.00;99.90;;;;;;5066882;28;20100;-78
2024/01/08 05:16:03;;;;;;;8.77;6.47;;;-1.00;99.90;;;;;;5063062;28;20319;-80
2024/01/08 05:18:29;;;;;;;8.90;6.30;;;-1.10;99.90;;;;;;5064946;28;20302;-79
2024/01/08 05:20:55;;;;;;;8.30;6.33;;;-1.10;99.90;;;;;;5061145;28;20294;-79
2024/01/08 05:23:20;;;;;;;9.60;6.50;;;-1.10;99.90;;;;;;5065715;28;20716;-79
2024/01/08 05:25:46;;;;;;;9.63;6.60;;;-1.20;99.90;;;;;;5062609;28;20523;-78
2024/01/08 05:28:12;;;;;;;9.30;6.47;;;-1.20;99.90;;;;;;5064465;28;20100;-80
2024/01/08 05:30:38;;;;;;;9.20;6.57;;;-1.20;99.90;;;;;;5058824;28;20037;-79
2024/01/08 05:33:04;;;;;;;11.13;6.43;;;-1.20;99.90;;;;;;5066581;28;20108;-79
2024/01/08 05:35:29;;;;;;;9.43;6.40;;;-1.20;99.90;;;;;;5062789;28;20531;-81
2024/01/08 05:37:56;;;;;;;11.00;7.33;;;-1.20;99.90;;;;;;5063565;28;20319;-80
2024/01/08 05:40:22;;;;;;;11.03;7.33;;;-1.30;99.90;;;;;;5061890;28;20055;-80
2024/01/08 05:42:48;;;;;;;10.67;6.80;;;-1.30;99.90;;;;;;5065127;28;20294;-80
2024/01/08 05:45:13;;;;;;;10.17;7.10;;;-1.40;99.90;;;;;;5063931;28;20033;-79
2024/01/08 05:47:39;;;;;;;13.43;7.60;;;-1.30;99.90;;;;;;5057375;28;20052;-80
2024/01/08 05:50:05;;;;;;;10.10;7.57;;;-1.30;99.90;;;;;;5061861;28;20438;-80
2024/01/08 05:52:32;;;;;;;11.37;7.13;;;-1.30;99.90;;;;;;5067005;28;20067;-80
2024/01/08 05:54:57;;;;;;;8.50;6.30;;;-1.30;99.90;;;;;;5062317;28;20290;-81
2024/01/08 05:57:23;;;;;;;12.87;7.83;;;-1.40;99.90;;;;;;5044110;28;20301;-81
2024/01/08 05:59:50;;;;;;;12.80;7.90;;;-1.40;99.90;;;;;;5056722;28;20048;-79
2024/01/08 06:02:15;;;;;;;10.97;7.33;;;-1.30;99.90;;;;;;5066440;28;20075;-82
2024/01/08 06:04:41;;;;;;;13.07;7.53;;;-1.30;99.90;;;;;;5057626;28;20292;-77
2024/01/08 06:07:07;;;;;;;10.87;7.23;;;-1.30;99.90;;;;;;5065093;28;20090;-77
2024/01/08 06:09:32;;;;;;;12.50;7.07;;;-1.30;99.90;;;;;;5071836;28;20091;-77
2024/01/08 06:11:58;;;;;;;13.17;8.10;;;-1.30;99.90;;;;;;5044479;28;20107;-78
2024/01/08 06:14:25;;;;;;;10.37;7.27;;;-1.30;99.90;;;;;;5062538;28;20066;-78
2024/01/08 06:16:52;;;;;;;11.43;7.33;;;-1.30;99.90;;;;;;5069993;28;20048;-84
2024/01/08 06:19:17;;;;;;;11.37;7.47;;;-1.30;99.90;;;;;;5057653;28;20317;-82
2024/01/08 06:21:43;;;;;;;10.83;7.40;;;-1.30;99.90;;;;;;5043901;28;20710;-84
2024/01/08 06:24:09;;;;;;;9.67;6.97;;;-1.20;99.90;;;;;;5056861;28;20033;-79
2024/01/08 06:26:35;;;;;;;9.77;7.17;;;-1.30;99.90;;;;;;5049848;28;20332;-78
2024/01/08 06:29:00;;;;;;;10.27;7.17;;;-1.20;99.90;;;;;;5071816;28;20052;-78
2024/01/08 06:31:26;;;;;;;12.70;7.60;;;-1.20;99.90;;;;;;5054934;28;20041;-78
2024/01/08 06:33:52;;;;;;;11.10;7.30;;;-1.20;99.90;;;;;;5054100;28;20048;-78
2024/01/08 06:36:18;;;;;;;11.73;7.30;;;-1.20;99.90;;;;;;5067702;28;21149;-78
2024/01/08 06:38:45;;;;;;;9.30;7.17;;;-1.20;99.90;;;;;;5061944;28;20056;-77
2024/01/08 06:41:11;;;;;;;11.10;6.97;;;-1.20;99.90;;;;;;5054828;28;20041;-77
2024/01/08 06:43:37;;;;;;;11.90;6.77;;;-1.20;99.90;;;;;;5064929;28;20299;-77
2024/01/08 06:46:02;;;;;;;11.33;7.17;;;-1.20;99.90;;;;;;5053589;28;20095;-77
2024/01/08 06:48:29;;;;;;;11.23;7.10;;;-1.20;99.90;;;;;;5054910;28;20113;-77
2024/01/08 06:50:54;;;;;;;10.70;7.13;;;-1.20;99.90;;;;;;5064041;28;20048;-78
2024/01/08 06:53:20;;;;;;;11.23;7.13;;;-1.20;99.90;;;;;;5066703;28;20302;-78
2024/01/08 06:55:47;;;;;;;13.70;7.80;;;-1.20;99.90;;;;;;5050713;28;20040;-78
2024/01/08 06:58:12;;;;;;;12.07;7.17;;;-1.20;99.90;;;;;;5068980;28;20087;-78
2024/01/08 07:00:38;;;;;;;10.27;6.77;;;-1.20;99.90;;;;;;5064522;28;20382;-78
2024/01/08 07:03:04;;;;;;;9.93;6.73;;;-1.10;99.90;;;;;;5055202;28;20055;-78
2024/01/08 07:05:29;;;;;;;11.80;7.33;;;-1.10;99.90;;;;;;5070733;28;20048;-78
2024/01/08 07:07:56;;;;;;;12.13;7.10;;;-1.10;99.90;;;;;;5063906;28;20124;-78
2024/01/08 07:10:21;;;;;;;9.80;6.93;;;-1.10;99.90;;;;;;5067817;28;20041;-78
2024/01/08 07:12:47;;;;;;;10.20;7.03;;;-1.10;99.90;;;;;;5057895;28;20302;-78
2024/01/08 07:15:35;;;;;;;11.70;6.83;;;-1.00;99.90;;;;;;5067654;28;20127;-76
2024/01/08 07:18:01;;;;;;;10.53;7.03;;;-0.90;99.90;;;;;;5056776;28;20056;-79
2024/01/08 07:20:26;;;;;;;9.20;6.67;;;-1.00;99.90;;;;;;5071559;28;20306;-78
2024/01/08 07:22:52;;;;;;;11.40;6.50;;;-1.00;99.90;;;;;;5062970;28;20656;-78
2024/01/08 07:25:18;;;;;;;10.23;6.73;;;-0.90;99.90;;;;;;5059983;28;20116;-77
2024/01/08 07:27:43;;;;;;;10.53;6.73;;;-1.00;99.90;;;;;;5063100;28;20052;-78
2024/01/08 07:30:10;;;;;;;10.47;6.60;;;-0.90;99.90;;;;;;5070515;28;20060;-77
2024/01/08 07:32:36;;;;;;;9.73;6.23;;;-0.90;99.90;;;;;;5062798;28;20041;-78
2024/01/08 07:35:02;;;;;;;10.43;6.27;;;-0.90;99.90;;;;;;5064194;28;20305;-78
2024/01/08 07:37:28;;;;;;;9.23;6.90;;;-0.90;99.90;;;;;;5070182;28;20063;-77
2024/01/08 07:39:53;;;;;;;10.77;6.83;;;-0.80;99.90;;;;;;5058190;28;20044;-77
2024/01/08 07:42:19;;;;;;;11.43;6.43;;;-0.90;99.90;;;;;;5049068;28;20052;-76
2024/01/08 07:44:45;;;;;;;10.93;6.40;;;-0.80;99.90;;;;;;5052098;28;20064;-78
2024/01/08 07:47:11;;;;;;;9.43;6.17;;;-0.90;99.90;;;;;;5062359;28;20045;-77
2024/01/08 07:49:37;;;;;;;8.13;6.40;;;-0.70;99.90;;;;;;5050435;28;20049;-79
2024/01/08 07:52:03;;;;;;;14.10;6.13;;;-0.80;99.90;;;;;;5047803;28;20032;-79
2024/01/08 07:54:28;;;;;;;10.60;6.30;;;-0.70;99.90;;;;;;5049915;28;20446;-79
2024/01/08 07:56:54;;;;;;;12.03;7.10;;;-0.70;99.90;;;;;;5055288;28;20290;-80
2024/01/08 07:59:20;;;;;;;8.87;5.97;;;-0.70;99.90;;;;;;5058396;28;20136;-80
2024/01/08 08:01:45;;;;;;;10.23;5.70;;;-0.70;99.90;;;;;;5052687;28;20051;-80
2024/01/08 08:04:11;;;;;;;10.90;6.50;;;-0.70;99.90;;;;;;5051311;28;20049;-80
2024/01/08 08:06:37;;;;;;;9.13;5.90;;;-0.60;99.90;;;;;;5059947;28;20043;-79
2024/01/08 08:09:03;;;;;;;8.50;5.63;;;-0.60;99.90;;;;;;5069230;28;20044;-78
2024/01/08 08:11:28;;;;;;;8.03;5.80;;;-0.60;99.90;;;;;;5049446;28;20047;-79
2024/01/08 08:13:54;;;;;;;8.27;5.60;;;-0.60;99.90;;;;;;5048155;28;20324;-80
2024/01/08 08:16:20;;;;;;;11.03;5.77;;;-0.60;99.90;;;;;;5055827;28;20418;-79
2024/01/08 08:18:46;;;;;;;7.47;5.43;;;-0.60;99.90;;;;;;5046776;28;20534;-84
2024/01/08 08:21:11;;;;;;;8.77;6.37;;;-0.50;99.90;;;;;;5044948;28;20289;-78
2024/01/08 08:23:37;;;;;;;7.53;5.17;;;-0.50;99.90;;;;;;5052664;28;20088;-72
2024/01/08 08:26:03;;;;;;;9.47;6.43;;;-0.40;99.90;;;;;;5056018;28;20047;-80
2024/01/08 08:28:29;;;;;;;8.43;5.87;;;-0.40;99.90;;;;;;5054142;28;20044;-80
2024/01/08 08:30:55;;;;;;;10.57;6.00;;;-0.50;99.90;;;;;;5044316;28;20095;-81
2024/01/08 08:33:20;;;;;;;9.07;5.73;;;-0.50;99.90;;;;;;5053051;28;20475;-81
2024/01/08 08:35:46;;;;;;;9.73;5.57;;;-0.50;99.90;;;;;;5053052;28;20158;-79
2024/01/08 08:38:12;;;;;;;8.07;5.53;;;-0.50;99.90;;;;;;5059796;28;20062;-78
2024/01/08 08:40:38;;;;;;;10.60;6.33;;;-0.50;99.90;;;;;;5054716;28;20050;-78
2024/01/08 08:43:05;;;;;;;8.63;5.57;;;-0.50;99.90;;;;;;5052453;28;20342;-80
2024/01/08 08:45:31;;;;;;;9.20;5.67;;;-0.50;99.90;;;;;;5052364;28;20450;-79
2024/01/08 08:47:57;;;;;;;11.53;5.73;;;-0.50;99.90;;;;;;5063521;28;20287;-78
2024/01/08 08:50:23;;;;;;;7.43;5.30;;;-0.40;99.90;;;;;;5063641;28;20048;-79
2024/01/08 08:52:48;;;;;;;8.23;5.87;;;-0.50;99.90;;;;;;5055047;28;20100;-77
2024/01/08 08:55:14;;;;;;;10.10;5.13;;;-0.30;99.90;;;;;;5045592;28;20585;-79
2024/01/08 08:57:40;;;;;;;8.20;5.87;;;-0.40;99.90;;;;;;5049772;28;20068;-78
2024/01/08 09:00:09;;;;;;;7.07;5.33;;;-0.30;99.90;;;;;;5062544;28;20084;-80
2024/01/08 09:02:35;;;;;;;7.97;5.40;;;-0.30;99.90;;;;;;5064876;28;20044;-78
2024/01/08 09:05:02;;;;;;;7.83;5.13;;;-0.30;99.90;;;;;;5056953;28;20063;-79
2024/01/08 09:07:28;;;;;;;9.17;5.97;;;-0.30;99.90;;;;;;5066747;28;20041;-79
2024/01/08 09:09:54;;;;;;;8.73;5.27;;;-0.30;99.90;;;;;;5067883;28;20294;-82
2024/01/08 09:12:19;;;;;;;8.40;5.23;;;-0.20;99.90;;;;;;5063517;28;20041;-80
2024/01/08 09:14:45;;;;;;;11.23;5.40;;;-0.30;99.90;;;;;;5057905;28;20452;-82
2024/01/08 09:17:11;;;;;;;10.00;5.83;;;-0.20;99.90;;;;;;5062103;28;20053;-84
2024/01/08 09:19:38;;;;;;;8.70;5.03;;;-0.30;99.90;;;;;;5053362;28;20140;-82
2024/01/08 09:22:04;;;;;;;7.00;5.60;;;-0.30;99.90;;;;;;5072202;28;20078;-77
2024/01/08 09:24:30;;;;;;;8.77;4.90;;;-0.30;99.90;;;;;;5051259;28;20296;-77
2024/01/08 09:26:55;;;;;;;9.43;4.83;;;-0.30;99.90;;;;;;5071040;28;20279;-80
2024/01/08 09:29:21;;;;;;;8.80;5.60;;;-0.30;99.90;;;;;;5063851;28;20044;-78
2024/01/08 09:31:47;;;;;;;9.97;4.93;;;-0.20;99.90;;;;;;5063338;28;20041;-79
2024/01/08 09:34:13;;;;;;;8.10;5.07;;;-0.20;99.90;;;;;;5058496;28;20109;-78
2024/01/08 09:36:39;;;;;;;7.87;5.00;;;-0.20;99.90;;;;;;5049870;28;20046;-78
2024/01/08 09:39:05;;;;;;;7.40;5.23;;;-0.10;99.90;;;;;;5055117;28;20055;-79
2024/01/08 09:41:32;;;;;;;6.90;4.77;;;-0.20;99.90;;;;;;5064504;28;20040;-78
2024/01/08 09:44:03;;;;;;;8.30;5.33;;;-0.20;99.90;;;;;;5044559;28;20045;-79
2024/01/08 09:46:32;;;;;;;9.43;5.40;;;-0.10;99.90;;;;;;5049294;28;20278;-79
2024/01/08 09:49:00;;;;;;;7.87;4.97;;;-0.10;99.90;;;;;;5054530;28;20044;-77
2024/01/08 09:51:26;;;;;;;5.77;4.60;;;-0.10;99.90;;;;;;5057370;28;21024;-77
2024/01/08 09:53:52;;;;;;;7.93;5.27;;;0.00;99.90;;;;;;5047417;28;20377;-74
2024/01/08 09:56:22;;;;;;;9.60;5.70;;;0.00;99.90;;;;;;5051004;28;20056;-84
2024/01/08 09:58:48;;;;;;;10.10;5.50;;;0.00;99.90;;;;;;5047956;28;20338;-77
2024/01/08 10:01:13;;;;;;;8.67;5.03;;;0.10;99.90;;;;;;5050914;28;20048;-83
2024/01/08 10:03:40;;;;;;;8.03;4.90;;;0.20;99.90;;;;;;5044953;28;20081;-81
2024/01/08 10:06:07;;;;;;;9.03;5.60;;;0.10;99.90;;;;;;5052596;28;20056;-81
2024/01/08 10:08:33;;;;;;;10.37;5.43;;;0.20;99.90;;;;;;5051575;28;20472;-80
2024/01/08 10:10:59;;;;;;;6.60;4.77;;;0.20;99.90;;;;;;5053706;28;20043;-81
2024/01/08 10:13:25;;;;;;;7.00;4.97;;;0.30;99.90;;;;;;5042308;28;20076;-80
2024/01/08 10:15:52;;;;;;;6.80;4.97;;;0.30;99.90;;;;;;5049166;28;20083;-79
2024/01/08 10:18:18;;;;;;;9.33;5.03;;;0.40;99.90;;;;;;5053475;28;20123;-79
2024/01/08 10:20:46;;;;;;;8.37;5.30;;;0.30;99.90;;;;;;5050416;28;20069;-76
2024/01/08 10:23:16;;;;;;;6.07;5.03;;;0.30;99.90;;;;;;5050549;28;20041;-78
2024/01/08 10:25:50;;;;;;;7.40;4.73;;;0.30;99.90;;;;;;5038739;28;20497;-79
2024/01/08 10:28:18;;;;;;;9.43;4.80;;;0.40;99.90;;;;;;5051201;28;20509;-80
2024/01/08 10:30:44;;;;;;;7.73;4.83;;;0.40;99.90;;;;;;5054643;28;20041;-79
2024/01/08 10:33:10;;;;;;;6.57;5.07;;;0.30;99.90;;;;;;5047238;28;20045;-78
2024/01/08 10:35:37;;;;;;;7.87;5.00;;;0.30;99.90;;;;;;5072244;28;20045;-80
2024/01/08 10:38:04;;;;;;;7.47;4.80;;;0.30;99.90;;;;;;5066666;28;20110;-79
2024/01/08 10:40:30;;;;;;;6.23;4.40;;;0.30;99.90;;;;;;5073532;28;20049;-79
2024/01/08 10:42:56;;;;;;;7.83;4.70;;;0.30;99.90;;;;;;5071297;28;20124;-80
2024/01/08 10:45:22;;;;;;;5.03;4.47;;;0.30;99.90;;;;;;5063445;28;20088;-79
2024/01/08 10:47:59;;;;;;;6.40;4.23;;;0.30;99.90;;;;;;5066672;28;20055;-79
2024/01/08 10:50:27;;;;;;;10.23;4.57;;;0.40;99.90;;;;;;5055305;28;20043;-82
2024/01/08 10:52:57;;;;;;;5.73;4.30;;;0.40;99.90;;;;;;5051651;28;20073;-80
2024/01/08 10:55:23;;;;;;;6.80;4.53;;;0.40;99.90;;;;;;5054694;28;20123;-78
2024/01/08 10:58:01;;;;;;;5.40;4.60;;;0.40;99.90;;;;;;5065004;28;20080;-80
2024/01/08 11:00:28;;;;;;;5.47;3.93;;;0.40;99.90;;;;;;5071722;28;20135;-79
2024/01/08 11:02:54;;;;;;;8.33;5.07;;;0.30;99.90;;;;;;5062148;28;20045;-79
2024/01/08 11:05:21;;;;;;;8.40;5.40;;;0.40;99.90;;;;;;5070218;28;20071;-79
2024/01/08 11:07:50;;;;;;;8.23;4.37;;;0.40;99.90;;;;;;5065351;28;20048;-78
2024/01/08 11:10:18;;;;;;;7.53;4.70;;;0.40;99.90;;;;;;5055472;28;20049;-75
2024/01/08 11:12:56;;;;;;;6.43;3.97;;;0.40;99.90;;;;;;5058761;28;20404;-79
2024/01/08 11:15:27;;;;;;;9.10;4.27;;;0.50;99.90;;;;;;5064394;28;20038;-80
2024/01/08 11:17:54;;;;;;;5.20;4.00;;;0.40;99.90;;;;;;5068762;28;20044;-80
2024/01/08 11:20:32;;;;;;;7.40;4.20;;;0.50;99.90;;;;;;5057109;28;20133;-79
2024/01/08 11:22:58;;;;;;;5.63;4.43;;;0.40;99.90;;;;;;5046496;28;20044;-79
2024/01/08 11:25:26;;;;;;;8.83;4.80;;;0.40;99.90;;;;;;5066347;28;20056;-80
2024/01/08 11:27:51;;;;;;;6.43;4.50;;;0.50;99.90;;;;;;5066909;28;20068;-80
2024/01/08 11:30:18;;;;;;;7.77;4.60;;;0.70;99.90;;;;;;5062339;28;20065;-80
2024/01/08 11:33:18;;;;;;;5.53;4.30;;;0.80;99.90;;;;;;5060063;28;20264;-80
2024/01/08 11:35:53;;;;;;;6.30;4.87;;;0.80;99.90;;;;;;5061949;28;20131;-80
2024/01/08 11:38:24;;;;;;;6.97;4.20;;;1.00;99.90;;;;;;5061856;28;20067;-80
2024/01/08 11:40:49;;;;;;;6.87;4.60;;;0.90;99.90;;;;;;5060005;28;20048;-80
2024/01/08 11:43:18;;;;;;;7.50;4.40;;;0.80;99.90;;;;;;5063303;28;20045;-79
2024/01/08 11:45:44;;;;;;;8.87;4.93;;;0.90;99.90;;;;;;5033397;28;20052;-79
2024/01/08 11:48:10;;;;;;;6.73;4.87;;;0.80;99.90;;;;;;5058909;28;20099;-79
2024/01/08 11:50:36;;;;;;;5.87;4.23;;;0.70;99.90;;;;;;5057151;28;20052;-79
2024/01/08 11:53:04;;;;;;;6.17;4.87;;;0.90;99.90;;;;;;5055813;28;20079;-80
2024/01/08 11:55:31;;;;;;;6.80;4.60;;;0.80;99.90;;;;;;5055239;28;20048;-78
2024/01/08 11:57:57;;;;;;;10.27;5.60;;;0.80;99.90;;;;;;5055593;28;20059;-78
2024/01/08 12:00:28;;;;;;;9.60;6.00;;;0.90;99.90;;;;;;5060931;28;20131;-78
2024/01/08 12:03:05;;;;;;;22.63;10.90;;;0.80;99.90;;;;;;5065982;28;20068;-78
2024/01/08 12:05:31;;;;;;;9.10;5.80;;;0.80;99.90;;;;;;5055074;28;20603;-79
2024/01/08 12:07:57;;;;;;;10.13;5.53;;;0.80;99.90;;;;;;5052624;28;20143;-78
2024/01/08 12:10:22;;;;;;;6.47;4.87;;;0.80;99.90;;;;;;5048081;28;20614;-78
2024/01/08 12:12:48;;;;;;;6.23;4.50;;;0.80;99.90;;;;;;5060927;28;20067;-79
2024/01/08 12:15:15;;;;;;;6.73;4.43;;;0.90;99.90;;;;;;5051193;28;20041;-80
2024/01/08 12:17:41;;;;;;;6.40;4.77;;;0.80;99.90;;;;;;5063497;28;20084;-80
2024/01/08 12:20:07;;;;;;;8.83;4.77;;;0.90;99.90;;;;;;5053346;28;20060;-80
2024/01/08 12:22:33;;;;;;;6.20;4.50;;;0.90;99.90;;;;;;5057637;28;20109;-81
2024/01/08 12:24:59;;;;;;;10.53;5.90;;;1.00;99.90;;;;;;5056785;28;20055;-79
2024/01/08 12:27:27;;;;;;;7.50;4.97;;;1.20;99.90;;;;;;5044901;28;20418;-80
2024/01/08 12:29:56;;;;;;;6.37;4.23;;;1.30;99.90;;;;;;5043589;28;20047;-79
2024/01/08 12:32:23;;;;;;;6.17;4.60;;;1.30;99.90;;;;;;5051731;28;20055;-72
2024/01/08 12:34:50;;;;;;;6.33;4.30;;;1.40;99.90;;;;;;5052725;28;20044;-76
2024/01/08 12:37:17;;;;;;;5.83;4.00;;;1.30;99.90;;;;;;5057451;28;20052;-77
2024/01/08 12:39:44;;;;;;;9.27;4.50;;;1.30;99.90;;;;;;5068037;28;20072;-76